Time;durP1;ratioP1;P1;durP2;ratioP2;P2;SDS_P1;SDS_P2;PMS_P1;PMS_P2;Temp;Humidity;BMP_temperature;BMP_pressure;BME280_temperature;BME280_humidity;BME280_pressure;Samples;Min_cycle;Max_cycle;Signal;HPM_P1;HPM_P2
2022/06/15 00:01:22;;;;;;;8.40;3.75;;;;;;;15.67;59.52;101678.09;3567699;40;20391;-62
2022/06/15 00:03:49;;;;;;;6.22;3.50;;;;;;;15.60;59.07;101665.00;3567175;40;20052;-62
2022/06/15 00:06:21;;;;;;;8.18;3.92;;;;;;;15.66;59.32;101670.00;3567860;40;20415;-62
2022/06/15 00:08:51;;;;;;;8.77;3.90;;;;;;;15.63;59.74;101668.38;3568135;40;20056;-62
2022/06/15 00:11:26;;;;;;;9.35;4.05;;;;;;;15.59;59.93;101671.41;3566704;40;20057;-62
2022/06/15 00:13:55;;;;;;;7.10;3.40;;;;;;;15.53;59.70;101668.16;3566341;40;20086;-62
2022/06/15 00:16:22;;;;;;;7.18;3.70;;;;;;;15.51;59.65;101661.13;3569034;40;20423;-62
2022/06/15 00:18:49;;;;;;;6.15;3.50;;;;;;;15.45;60.20;101670.53;3565038;40;20050;-62
2022/06/15 00:21:17;;;;;;;7.53;3.78;;;;;;;15.44;60.03;101665.22;3565245;40;20053;-62
2022/06/15 00:23:44;;;;;;;6.03;3.60;;;;;;;15.43;60.36;101667.06;3567749;40;20061;-62
2022/06/15 00:26:13;;;;;;;6.15;3.40;;;;;;;15.39;60.48;101657.41;3568285;40;20064;-62
2022/06/15 00:28:39;;;;;;;5.95;3.47;;;;;;;15.30;60.62;101658.03;3568530;40;20049;-62
2022/06/15 00:31:06;;;;;;;5.63;3.83;;;;;;;15.31;60.78;101662.47;3572441;40;20112;-62
2022/06/15 00:33:32;;;;;;;5.88;3.35;;;;;;;15.18;60.48;101648.03;3568609;40;20423;-62
2022/06/15 00:36:04;;;;;;;8.15;3.75;;;;;;;15.25;60.87;101662.88;3571170;40;20426;-61
2022/06/15 00:38:40;;;;;;;7.50;3.42;;;;;;;15.22;61.07;101672.13;3569686;40;20171;-62
2022/06/15 00:41:12;;;;;;;6.53;3.63;;;;;;;15.20;60.99;101662.34;3571351;40;20448;-62
2022/06/15 00:43:43;;;;;;;6.88;4.07;;;;;;;15.18;60.86;101651.59;3570178;40;20049;-63
2022/06/15 00:46:32;;;;;;;9.23;3.97;;;;;;;15.17;61.53;101649.88;3569777;40;20064;-62
2022/06/15 00:49:35;;;;;;;8.02;3.75;;;;;;;15.20;61.46;101648.81;3568143;40;20054;-63
2022/06/15 00:52:12;;;;;;;7.40;3.75;;;;;;;14.84;61.37;101588.03;3567868;40;20048;-63
2022/06/15 00:54:40;;;;;;;4.35;3.17;;;;;;;15.15;61.71;101642.84;3568867;40;20057;-63
2022/06/15 00:57:06;;;;;;;8.02;3.85;;;;;;;15.11;61.64;101639.47;3569974;40;20057;-64
2022/06/15 00:59:59;;;;;;;6.53;3.88;;;;;;;15.11;61.59;101654.84;3560204;40;20093;-62
2022/06/15 01:02:27;;;;;;;5.28;3.55;;;;;;;15.04;62.16;101660.69;3563668;40;20400;-62
2022/06/15 01:05:09;;;;;;;7.32;4.22;;;;;;;14.97;62.78;101653.94;3567977;40;20055;-62
2022/06/15 01:08:34;;;;;;;6.88;3.85;;;;;;;14.94;62.38;101648.75;3568062;40;20080;-62
2022/06/15 01:11:24;;;;;;;9.15;4.00;;;;;;;14.88;62.93;101640.16;3530674;40;20065;-63
2022/06/15 01:14:08;;;;;;;7.10;3.88;;;;;;;14.89;63.25;101644.59;3529894;40;20061;-63
2022/06/15 01:17:23;;;;;;;18.80;4.47;;;;;;;14.85;63.12;101643.94;3555442;40;20325;-63
2022/06/15 01:20:32;;;;;;;7.07;4.00;;;;;;;14.83;63.25;101645.88;3566661;40;20061;-63
2022/06/15 01:23:26;;;;;;;8.43;4.10;;;;;;;14.80;63.27;101646.94;3569252;40;20381;-63
2022/06/15 01:26:23;;;;;;;7.30;4.03;;;;;;;14.79;63.42;101639.78;3566343;40;20056;-63
2022/06/15 01:29:02;;;;;;;8.45;4.57;;;;;;;14.77;63.45;101641.72;3566346;40;20121;-63
2022/06/15 01:31:54;;;;;;;5.90;4.43;;;;;;;14.72;63.97;101643.03;3570640;40;20061;-63
2022/06/15 01:34:55;;;;;;;8.75;4.68;;;;;;;14.68;64.37;101641.47;3567262;40;20067;-63
2022/06/15 01:37:51;;;;;;;8.20;4.25;;;;;;;14.63;63.83;101626.41;3567341;40;20063;-63
2022/06/15 01:40:36;;;;;;;7.60;4.68;;;;;;;14.65;64.09;101638.97;3567434;40;20131;-63
2022/06/15 01:43:17;;;;;;;8.05;4.72;;;;;;;14.52;64.01;101620.81;3565159;40;20053;-63
2022/06/15 01:45:47;;;;;;;6.45;4.25;;;;;;;14.34;64.50;101594.97;3565490;40;20057;-63
2022/06/15 01:48:16;;;;;;;8.20;4.70;;;;;;;14.53;64.38;101633.41;3571634;40;20053;-63
2022/06/15 01:50:53;;;;;;;5.78;4.68;;;;;;;14.48;64.67;101627.38;3571248;40;20045;-63
2022/06/15 01:53:39;;;;;;;7.35;4.50;;;;;;;14.46;64.68;101632.03;3568805;40;20057;-62
2022/06/15 01:56:10;;;;;;;8.45;5.00;;;;;;;14.42;65.10;101630.47;3570010;40;20101;-63
2022/06/15 01:58:44;;;;;;;9.80;4.60;;;;;;;14.37;64.66;101624.53;3576582;40;20343;-63
2022/06/15 02:01:24;;;;;;;8.95;4.82;;;;;;;14.36;65.10;101625.47;3570797;40;20354;-63
2022/06/15 02:04:26;;;;;;;5.82;4.32;;;;;;;14.01;65.23;101581.78;3577118;40;20045;-63
2022/06/15 02:07:40;;;;;;;8.55;4.63;;;;;;;14.27;65.04;101616.13;3574129;40;20114;-63
2022/06/15 02:10:25;;;;;;;6.85;3.92;;;;;;;14.23;65.52;101616.41;3571529;40;20040;-63
2022/06/15 02:13:12;;;;;;;7.72;4.85;;;;;;;14.19;65.54;101617.59;3570194;40;20056;-62
2022/06/15 02:15:47;;;;;;;9.50;5.05;;;;;;;14.19;65.35;101617.59;3568368;40;20053;-63
2022/06/15 02:18:20;;;;;;;6.80;4.50;;;;;;;14.15;65.33;101609.69;3565025;40;20127;-63
2022/06/15 02:21:10;;;;;;;8.37;4.70;;;;;;;14.13;65.73;101614.31;3566084;40;20049;-62
2022/06/15 02:23:40;;;;;;;7.40;4.60;;;;;;;14.13;65.95;101614.31;3572052;40;20317;-63
2022/06/15 02:26:07;;;;;;;10.23;5.28;;;;;;;14.10;66.04;101614.50;3567994;40;20418;-63
2022/06/15 02:28:42;;;;;;;5.25;4.68;;;;;;;14.06;65.71;101606.69;3568323;40;20123;-63
2022/06/15 02:31:08;;;;;;;9.63;4.55;;;;;;;14.01;65.93;101604.28;3567117;40;20057;-63
2022/06/15 02:33:47;;;;;;;6.07;4.50;;;;;;;14.00;66.35;101602.53;3564851;40;20101;-63
2022/06/15 02:36:14;;;;;;;7.57;4.88;;;;;;;14.00;66.20;101607.94;3564943;40;20056;-63
2022/06/15 02:38:39;;;;;;;10.20;5.15;;;;;;;13.95;66.29;101604.66;3570327;40;20872;-63
2022/06/15 02:41:05;;;;;;;7.15;5.13;;;;;;;13.89;66.25;101605.94;3565953;40;20112;-63
2022/06/15 02:43:33;;;;;;;7.65;4.57;;;;;;;13.87;66.79;101597.06;3567228;40;20415;-63
2022/06/15 02:46:03;;;;;;;7.28;4.93;;;;;;;13.85;66.86;101598.09;3564495;40;20368;-63
2022/06/15 02:48:30;;;;;;;6.15;4.60;;;;;;;13.85;66.36;101595.41;3564820;40;20068;-63
2022/06/15 02:51:15;;;;;;;6.07;4.60;;;;;;;13.83;66.72;101597.34;3565005;40;20097;-62
2022/06/15 02:53:43;;;;;;;8.15;5.07;;;;;;;13.79;67.22;101593.09;3569824;40;20051;-63
2022/06/15 02:56:14;;;;;;;7.88;4.90;;;;;;;13.77;67.28;101587.78;3567498;40;20058;-63
2022/06/15 02:58:46;;;;;;;8.48;5.32;;;;;;;13.74;67.14;101587.13;3572940;40;20064;-63
2022/06/15 03:01:13;;;;;;;8.00;5.53;;;;;;;13.68;67.13;101582.97;3569593;40;20057;-63
2022/06/15 03:03:40;;;;;;;6.40;5.13;;;;;;;13.72;67.11;101587.22;3564341;40;20119;-63
2022/06/15 03:06:16;;;;;;;10.75;5.18;;;;;;;13.68;66.89;101591.06;3568945;40;20419;-62
2022/06/15 03:08:42;;;;;;;7.45;5.10;;;;;;;13.65;67.10;101597.53;3573032;40;20053;-62
2022/06/15 03:11:09;;;;;;;8.75;5.15;;;;;;;13.63;67.71;101588.66;3568115;40;20057;-65
2022/06/15 03:13:36;;;;;;;8.55;5.13;;;;;;;13.34;67.56;101540.97;3569423;40;20131;-63
2022/06/15 03:16:04;;;;;;;9.80;4.88;;;;;;;13.60;67.62;101588.84;3566976;40;20106;-63
2022/06/15 03:18:31;;;;;;;7.65;4.85;;;;;;;13.59;67.14;101591.66;3566109;40;20296;-62
2022/06/15 03:21:02;;;;;;;8.45;5.38;;;;;;;13.58;67.89;101589.91;3569790;40;20048;-63
2022/06/15 03:23:30;;;;;;;7.40;5.07;;;;;;;13.52;67.66;101585.75;3566209;40;20385;-63
2022/06/15 03:25:58;;;;;;;10.35;5.45;;;;;;;13.50;68.14;101587.69;3566961;40;20110;-63
2022/06/15 03:28:25;;;;;;;8.77;5.45;;;;;;;13.48;67.85;101589.63;3568387;40;20057;-62
2022/06/15 03:30:52;;;;;;;8.27;5.30;;;;;;;13.40;67.92;101573.00;3562985;40;20048;-63
2022/06/15 03:33:19;;;;;;;7.18;4.75;;;;;;;13.47;67.81;101601.38;3569505;40;20041;-63
2022/06/15 03:35:46;;;;;;;8.63;5.50;;;;;;;13.45;68.23;101595.22;3569830;40;20414;-63
2022/06/15 03:38:12;;;;;;;7.82;5.07;;;;;;;13.17;68.32;101553.66;3568248;40;20049;-64
2022/06/15 03:40:42;;;;;;;11.40;5.30;;;;;;;13.44;68.76;101598.84;3567445;40;20041;-63
2022/06/15 03:43:09;;;;;;;7.50;5.72;;;;;;;13.11;68.33;101548.63;3574612;40;20371;-63
2022/06/15 03:45:35;;;;;;;9.95;5.13;;;;;;;13.38;68.34;101589.31;3563957;40;20055;-64
2022/06/15 03:48:03;;;;;;;10.43;5.07;;;;;;;13.43;68.10;101597.13;3567681;40;20049;-63
2022/06/15 03:50:32;;;;;;;7.55;5.00;;;;;;;13.45;68.28;101603.31;3564373;40;20416;-64
2022/06/15 03:53:00;;;;;;;7.80;5.20;;;;;;;13.46;68.12;101605.91;3563937;40;20069;-63
2022/06/15 03:55:30;;;;;;;9.00;5.25;;;;;;;13.47;67.89;101604.06;3565311;40;20408;-63
2022/06/15 03:57:58;;;;;;;10.07;5.20;;;;;;;13.43;68.21;101591.72;3571484;40;20064;-64
2022/06/15 04:00:27;;;;;;;11.68;5.57;;;;;;;13.48;68.32;101605.81;3573946;40;20072;-64
2022/06/15 04:02:53;;;;;;;11.27;5.55;;;;;;;13.48;68.05;101603.13;3576956;40;20047;-63
2022/06/15 04:05:31;;;;;;;10.95;5.50;;;;;;;13.44;67.76;101590.75;3572388;40;20064;-64
2022/06/15 04:10:41;;;;;;;7.60;4.72;;;;;;;13.50;68.27;101603.88;3575066;40;20051;-66
2022/06/15 04:13:06;;;;;;;10.63;5.20;;;;;;;12.90;68.00;101504.06;3563464;40;20049;-63
2022/06/15 04:15:33;;;;;;;9.85;5.15;;;;;;;13.52;67.96;101606.50;3570671;40;20044;-64
2022/06/15 04:17:59;;;;;;;11.63;5.47;;;;;;;13.50;67.22;101601.19;3577974;40;20036;-64
2022/06/15 04:20:33;;;;;;;8.77;5.15;;;;;;;13.55;67.84;101601.78;3572009;40;20068;-64
2022/06/15 04:23:06;;;;;;;7.00;4.82;;;;;;;13.60;67.48;101610.44;3567822;40;20057;-63
2022/06/15 04:25:39;;;;;;;;;;;;;;;13.63;66.85;101602.16;3559962;40;20351;-64
2022/06/15 04:28:09;;;;;;;9.60;5.55;;;;;;;13.66;67.31;101604.66;3576116;40;19940;-63
2022/06/15 04:30:35;;;;;;;8.25;5.22;;;;;;;13.64;67.36;101595.81;3575498;40;20123;-63
2022/06/15 04:33:01;;;;;;;7.10;5.35;;;;;;;13.74;66.97;101600.63;3573395;40;20052;-63
2022/06/15 04:35:27;;;;;;;12.05;5.93;;;;;;;13.76;67.19;101598.69;3572597;40;20112;-64
2022/06/15 04:37:53;;;;;;;12.90;5.93;;;;;;;13.82;66.96;101603.72;3576345;40;20050;-63
2022/06/15 04:40:19;;;;;;;10.57;5.07;;;;;;;13.82;66.65;101604.56;3569344;40;20067;-64
2022/06/15 04:42:44;;;;;;;9.93;5.75;;;;;;;13.87;66.39;101602.47;3571976;40;20351;-63
2022/06/15 04:45:12;;;;;;;10.98;5.50;;;;;;;13.63;66.86;101553.53;3569461;40;20092;-64
2022/06/15 04:47:38;;;;;;;7.75;5.22;;;;;;;13.93;66.62;101602.06;3564985;40;20301;-64
2022/06/15 04:50:07;;;;;;;11.43;5.43;;;;;;;14.00;66.48;101607.94;3557127;40;20123;-64
2022/06/15 04:52:34;;;;;;;11.52;6.20;;;;;;;14.08;66.74;101610.16;3564692;40;20064;-64
2022/06/15 04:55:00;;;;;;;8.43;5.72;;;;;;;14.07;66.35;101609.28;3578997;40;20052;-64
2022/06/15 04:57:25;;;;;;;12.18;6.22;;;;;;;14.15;66.13;101612.38;3570939;40;20064;-64
2022/06/15 04:59:51;;;;;;;9.70;6.22;;;;;;;13.88;66.39;101566.34;3580126;40;20052;-64
2022/06/15 05:02:17;;;;;;;8.68;5.95;;;;;;;14.24;65.87;101610.03;3567228;40;20182;-64
2022/06/15 05:04:43;;;;;;;10.38;6.70;;;;;;;14.29;65.55;101616.03;3565271;40;20053;-64
2022/06/15 05:07:09;;;;;;;9.43;6.28;;;;;;;14.32;65.32;101615.81;3567821;40;20276;-64
2022/06/15 05:09:35;;;;;;;11.52;6.38;;;;;;;14.38;65.81;101613.59;3570780;40;20123;-65
2022/06/15 05:12:00;;;;;;;10.43;6.07;;;;;;;14.40;65.34;101602.69;3568327;40;20111;-65
2022/06/15 05:14:27;;;;;;;9.68;6.90;;;;;;;14.28;65.44;101581.84;3565344;40;20339;-64
2022/06/15 05:16:53;;;;;;;11.55;6.75;;;;;;;14.53;65.18;101611.75;3572639;40;20049;-64
2022/06/15 05:19:19;;;;;;;10.93;6.55;;;;;;;14.58;65.71;101604.19;3571539;40;20048;-64
2022/06/15 05:21:46;;;;;;;14.43;6.60;;;;;;;14.69;65.10;101618.88;3575029;40;20127;-64
2022/06/15 05:24:12;;;;;;;9.07;6.32;;;;;;;14.78;65.03;101621.81;3576107;40;20096;-64
2022/06/15 05:26:38;;;;;;;12.60;6.47;;;;;;;14.83;64.94;101613.38;3573698;40;20115;-64
2022/06/15 05:29:05;;;;;;;9.40;6.45;;;;;;;14.85;64.17;101606.03;3577179;40;20053;-62
2022/06/15 05:31:30;;;;;;;12.30;7.00;;;;;;;14.92;64.36;101601.06;3563364;40;20061;-62
2022/06/15 05:33:58;;;;;;;12.80;6.80;;;;;;;15.04;64.20;101611.94;3577681;40;20052;-62
2022/06/15 05:36:35;;;;;;;10.88;6.68;;;;;;;15.13;64.51;101606.84;3574432;40;20065;-62
2022/06/15 05:39:04;;;;;;;10.40;6.72;;;;;;;15.19;63.79;101615.44;3574583;40;20125;-63
2022/06/15 05:41:30;;;;;;;8.98;5.63;;;;;;;15.24;63.78;101607.00;3571093;40;20060;-62
2022/06/15 05:44:08;;;;;;;9.02;5.90;;;;;;;15.39;63.71;101605.06;3578143;40;20374;-62
2022/06/15 05:46:35;;;;;;;16.92;6.60;;;;;;;15.51;62.75;101615.91;3573413;40;20056;-62
2022/06/15 05:49:04;;;;;;;9.90;6.40;;;;;;;15.61;62.81;101615.28;3572672;40;20129;-63
2022/06/15 05:51:30;;;;;;;8.18;5.45;;;;;;;15.48;61.67;101577.34;3568463;40;20150;-63
2022/06/15 05:53:56;;;;;;;11.68;5.80;;;;;;;15.72;61.60;101599.13;3568432;40;20053;-63
2022/06/15 05:56:23;;;;;;;9.80;5.25;;;;;;;15.94;61.70;101618.31;3573748;40;20065;-64
2022/06/15 05:58:49;;;;;;;11.63;5.40;;;;;;;16.07;61.80;101617.44;3578685;40;20379;-63
2022/06/15 06:01:27;;;;;;;10.38;5.80;;;;;;;16.22;61.43;101616.31;3578283;40;20051;-64
2022/06/15 06:03:54;;;;;;;13.80;6.57;;;;;;;16.39;60.49;101615.06;3575299;40;20059;-65
2022/06/15 06:06:21;;;;;;;9.88;5.57;;;;;;;16.54;60.70;101615.81;3571984;40;20056;-64
2022/06/15 06:08:47;;;;;;;10.98;5.03;;;;;;;16.74;59.07;101623.31;3570392;40;20052;-65
2022/06/15 06:11:14;;;;;;;10.02;5.55;;;;;;;16.84;58.45;101613.53;3576704;40;20084;-64
2022/06/15 06:13:40;;;;;;;10.55;5.55;;;;;;;17.05;58.50;101615.59;3576637;40;20060;-64
2022/06/15 06:16:06;;;;;;;11.35;5.55;;;;;;;17.27;58.29;101610.22;3569296;40;20057;-63
2022/06/15 06:18:32;;;;;;;8.00;4.63;;;;;;;17.50;57.24;101610.28;3567026;40;20061;-64
2022/06/15 06:20:58;;;;;;;9.07;4.60;;;;;;;17.70;56.05;101612.31;3568736;40;20076;-64
2022/06/15 06:23:23;;;;;;;10.05;4.50;;;;;;;17.90;55.64;101615.31;3566755;40;20065;-64
2022/06/15 06:25:51;;;;;;;10.10;5.05;;;;;;;18.09;55.05;101610.97;3564608;40;20053;-64
2022/06/15 06:28:27;;;;;;;9.60;4.43;;;;;;;18.31;54.35;101615.53;3565258;40;20392;-64
2022/06/15 06:30:53;;;;;;;10.50;4.50;;;;;;;18.49;54.69;101599.56;3564624;40;20111;-64
2022/06/15 06:33:19;;;;;;;8.90;4.22;;;;;;;18.71;53.75;101614.97;3573695;40;20057;-64
2022/06/15 06:35:46;;;;;;;7.68;4.32;;;;;;;18.91;53.90;101620.63;3575767;40;20056;-64
2022/06/15 06:38:13;;;;;;;8.60;3.92;;;;;;;19.08;53.74;101611.88;3572440;40;20125;-64
2022/06/15 06:40:39;;;;;;;7.75;3.95;;;;;;;19.28;52.31;101612.88;3573616;40;20451;-64
2022/06/15 06:43:05;;;;;;;7.07;4.20;;;;;;;19.49;53.14;101618.34;3574613;40;20059;-63
2022/06/15 06:45:30;;;;;;;8.48;3.72;;;;;;;19.60;51.10;101623.75;3574815;40;20127;-64
2022/06/15 06:47:56;;;;;;;9.57;4.53;;;;;;;19.79;51.20;101617.59;3572756;40;20052;-65
2022/06/15 06:50:23;;;;;;;6.10;3.75;;;;;;;19.99;50.13;101623.13;3573183;40;20065;-63
2022/06/15 06:52:49;;;;;;;8.25;3.85;;;;;;;20.17;50.23;101619.63;3574747;40;20381;-64
2022/06/15 06:55:15;;;;;;;6.45;4.03;;;;;;;20.28;49.82;101618.63;3574690;40;20056;-64
2022/06/15 06:57:41;;;;;;;6.80;3.95;;;;;;;20.29;50.06;101616.75;3575317;40;20049;-64
2022/06/15 07:00:08;;;;;;;10.60;4.07;;;;;;;20.40;50.33;101625.72;3570339;40;20049;-64
2022/06/15 07:02:34;;;;;;;10.18;3.83;;;;;;;20.52;49.70;101631.97;3564206;40;20049;-64
2022/06/15 07:05:00;;;;;;;8.77;4.03;;;;;;;20.73;48.61;101639.19;3568959;40;20291;-62
2022/06/15 07:07:26;;;;;;;6.20;3.85;;;;;;;20.75;47.91;101634.47;3571710;40;20067;-64
2022/06/15 07:09:51;;;;;;;8.05;3.60;;;;;;;20.89;48.33;101634.03;3576341;40;20048;-64
2022/06/15 07:12:17;;;;;;;5.25;3.28;;;;;;;20.96;48.08;101635.19;3571412;40;20055;-64
2022/06/15 07:14:43;;;;;;;8.48;3.45;;;;;;;20.98;47.51;101610.47;3566230;40;20053;-64
2022/06/15 07:17:08;;;;;;;5.55;3.30;;;;;;;21.33;47.92;101634.47;3575564;40;20044;-64
2022/06/15 07:19:34;;;;;;;5.85;3.25;;;;;;;21.43;48.93;101631.75;3564265;40;20052;-64
2022/06/15 07:22:00;;;;;;;8.77;4.18;;;;;;;21.63;46.75;101636.22;3569264;40;20059;-64
2022/06/15 07:24:25;;;;;;;7.50;3.75;;;;;;;21.78;47.71;101636.59;3575096;40;20077;-64
2022/06/15 07:26:51;;;;;;;4.22;3.17;;;;;;;21.96;46.29;101639.44;3573601;40;20049;-64
2022/06/15 07:29:22;;;;;;;7.03;3.60;;;;;;;22.13;46.25;101643.25;3573266;40;20056;-64
2022/06/15 07:31:55;;;;;;;6.82;3.20;;;;;;;22.31;46.77;101633.25;3575745;40;20056;-64
2022/06/15 07:34:22;;;;;;;;;;;;;;;22.40;45.90;101643.31;3574012;40;20122;-64
2022/06/15 07:36:48;;;;;;;7.28;3.53;;;;;;;22.55;45.42;101629.06;3570218;40;20050;-64
2022/06/15 07:39:21;;;;;;;8.60;3.20;;;;;;;22.71;45.88;101645.72;3566154;40;20065;-64
2022/06/15 07:41:48;;;;;;;7.32;3.65;;;;;;;22.87;44.52;101642.31;3566002;40;20390;-64
2022/06/15 07:44:17;;;;;;;6.68;3.30;;;;;;;22.97;43.82;101650.50;3564221;40;20125;-64
2022/06/15 07:46:43;;;;;;;5.43;3.40;;;;;;;23.04;42.73;101646.09;3568456;40;20165;-64
2022/06/15 07:49:54;;;;;;;8.80;3.47;;;;;;;23.04;42.92;101640.63;3564125;40;20060;-64
2022/06/15 07:52:00;;;;;;;6.20;3.22;;;;;;;23.12;43.28;101648.91;3565264;40;20043;-64
2022/06/15 07:54:27;;;;;;;6.63;3.28;;;;;;;23.32;43.56;101645.00;3575186;40;20076;-64
2022/06/15 07:56:56;;;;;;;7.90;3.30;;;;;;;23.50;42.29;101641.34;3567226;40;20057;-64
2022/06/15 07:59:24;;;;;;;10.32;6.40;;;;;;;23.70;41.55;101645.66;3568594;40;20100;-64
2022/06/15 08:01:50;;;;;;;7.43;3.10;;;;;;;23.88;41.02;101639.25;3577893;40;20437;-64
2022/06/15 08:04:16;;;;;;;5.38;3.05;;;;;;;23.96;41.46;101637.41;3567706;40;20414;-64
2022/06/15 08:06:46;;;;;;;6.60;2.92;;;;;;;24.15;42.67;101647.31;3570734;40;20409;-63
2022/06/15 08:09:13;;;;;;;5.70;3.05;;;;;;;24.06;40.49;101620.81;3574758;40;20100;-64
2022/06/15 08:12:11;;;;;;;6.32;2.90;;;;;;;24.30;41.08;101640.19;3574788;40;20407;-64
2022/06/15 08:14:29;;;;;;;5.03;3.10;;;;;;;24.42;39.83;101632.53;3574227;40;20100;-64
2022/06/15 08:16:55;;;;;;;8.73;2.97;;;;;;;24.62;39.75;101652.34;3572174;40;20044;-64
2022/06/15 08:19:21;;;;;;;8.73;3.20;;;;;;;24.71;39.44;101642.25;3574625;40;20075;-64
2022/06/15 08:21:46;;;;;;;7.22;3.15;;;;;;;24.64;39.12;101639.28;3573377;40;20049;-64
2022/06/15 08:24:12;;;;;;;6.88;3.28;;;;;;;24.77;39.23;101647.94;3568724;40;20058;-65
2022/06/15 08:26:38;;;;;;;5.07;2.83;;;;;;;24.82;39.22;101638.31;3568068;40;20060;-64
2022/06/15 08:29:11;;;;;;;7.38;3.20;;;;;;;25.02;39.14;101642.47;3574785;40;20055;-63
2022/06/15 08:31:37;;;;;;;;;;;;;;;25.07;38.56;101642.81;3576235;40;20057;-64
2022/06/15 08:34:05;;;;;;;6.53;3.22;;;;;;;25.12;38.44;101645.06;3568759;40;20365;-64
2022/06/15 08:36:32;;;;;;;8.77;3.03;;;;;;;24.94;37.98;101602.06;3575052;40;20363;-64
2022/06/15 08:38:58;;;;;;;9.85;3.45;;;;;;;25.28;37.35;101645.13;3572805;40;20399;-64
2022/06/15 08:41:35;;;;;;;4.57;2.85;;;;;;;25.40;37.60;101640.13;3572259;40;20069;-64
2022/06/15 08:44:44;;;;;;;6.85;2.80;;;;;;;25.55;36.66;101643.03;3572419;40;20475;-64
2022/06/15 08:47:19;;;;;;;5.47;3.05;;;;;;;25.61;37.88;101634.94;3565426;40;20131;-64
2022/06/15 08:50:24;;;;;;;8.13;3.30;;;;;;;25.91;35.82;101629.75;3572389;40;20049;-64
2022/06/15 08:53:32;;;;;;;6.68;3.38;;;;;;;26.02;36.36;101632.16;3574515;40;20308;-65
2022/06/15 08:56:14;;;;;;;6.55;3.50;;;;;;;26.11;36.86;101633.00;3566225;40;20052;-64
2022/06/15 08:59:01;;;;;;;8.52;4.13;;;;;;;26.36;35.49;101639.28;3569174;40;20060;-64
2022/06/15 09:02:05;;;;;;;7.43;3.13;;;;;;;26.51;35.07;101631.97;3570871;40;20130;-64
2022/06/15 09:04:58;;;;;;;8.20;3.55;;;;;;;26.47;34.45;101641.63;3569125;40;20049;-64
2022/06/15 09:07:51;;;;;;;8.38;3.65;;;;;;;26.56;34.84;101629.53;3572015;40;20067;-64
2022/06/15 09:10:25;;;;;;;10.05;3.42;;;;;;;26.57;34.76;101622.97;3568806;40;20040;-64
2022/06/15 09:13:20;;;;;;;7.88;2.97;;;;;;;26.64;33.81;101634.16;3557596;40;20045;-64
2022/06/15 09:16:25;;;;;;;7.43;3.30;;;;;;;26.74;32.98;101636.72;3574958;40;20470;-64
2022/06/15 09:19:11;;;;;;;5.32;3.22;;;;;;;26.82;32.68;101633.88;3577332;40;20056;-64
2022/06/15 09:21:49;;;;;;;7.88;3.65;;;;;;;26.90;32.76;101636.59;3573175;40;20064;-64
2022/06/15 09:24:48;;;;;;;6.65;3.65;;;;;;;26.95;34.42;101633.28;3575117;40;20056;-64
2022/06/15 09:27:40;;;;;;;7.95;3.55;;;;;;;26.87;34.30;101609.38;3574674;40;20375;-64
2022/06/15 09:30:21;;;;;;;7.93;4.20;;;;;;;27.16;34.47;101640.94;3573079;40;20295;-63
2022/06/15 09:33:32;;;;;;;6.95;3.53;;;;;;;27.35;33.95;101647.88;3576663;40;20101;-63
2022/06/15 09:36:11;;;;;;;7.78;3.53;;;;;;;27.38;33.52;101631.78;3559780;40;20052;-64
2022/06/15 09:38:38;;;;;;;6.40;3.15;;;;;;;27.42;32.85;101635.03;3574478;40;20057;-64
2022/06/15 09:41:20;;;;;;;10.07;3.30;;;;;;;27.64;32.19;101627.75;3570009;40;20048;-63
2022/06/15 09:44:20;;;;;;;11.17;3.23;;;;;;;27.75;32.30;101625.38;3576928;40;20059;-64
2022/06/15 09:47:34;;;;;;;8.10;3.45;;;;;;;27.89;33.10;101611.81;3570940;40;20049;-64
2022/06/15 09:50:23;;;;;;;;;;;;;;;28.04;31.93;101617.31;3551031;40;20097;-64
2022/06/15 09:53:18;;;;;;;5.93;3.38;;;;;;;28.04;32.84;101617.31;3568011;40;20275;-64
2022/06/15 09:55:53;;;;;;;6.63;3.88;;;;;;;28.07;32.08;101619.69;3568124;40;20043;-64
2022/06/15 09:58:27;;;;;;;9.45;3.85;;;;;;;27.71;33.82;101601.06;3572632;40;20073;-64
2022/06/15 10:00:53;;;;;;;7.20;3.83;;;;;;;27.78;32.60;101593.75;3573870;40;20044;-64
2022/06/15 10:03:28;;;;;;;8.80;3.70;;;;;;;27.89;32.23;101607.13;3570760;40;20068;-63
2022/06/15 10:06:05;;;;;;;7.80;3.00;;;;;;;27.91;33.80;101617.97;3566729;40;20045;-64
2022/06/15 10:08:31;;;;;;;8.07;3.60;;;;;;;27.88;34.01;101623.88;3557118;40;20053;-64
2022/06/15 10:11:02;;;;;;;8.05;3.83;;;;;;;27.79;34.06;101586.34;3573868;40;20040;-64
2022/06/15 10:13:33;;;;;;;6.82;3.10;;;;;;;28.10;31.59;101624.84;3565390;40;20057;-64
2022/06/15 10:16:28;;;;;;;6.53;3.42;;;;;;;28.23;32.09;101619.53;3573096;40;20142;-63
2022/06/15 10:19:05;;;;;;;9.63;3.50;;;;;;;28.21;32.31;101622.47;3573901;40;20052;-64
2022/06/15 10:21:36;;;;;;;7.45;3.67;;;;;;;28.19;31.50;101621.78;3573237;40;20060;-64
2022/06/15 10:24:33;;;;;;;8.90;3.95;;;;;;;28.27;32.49;101623.63;3571781;40;20415;-64
2022/06/15 10:27:30;;;;;;;9.32;3.70;;;;;;;28.33;32.67;101616.47;3570693;40;20485;-64
2022/06/15 10:30:22;;;;;;;6.25;3.60;;;;;;;28.34;31.84;101609.88;3562791;40;20265;-63
2022/06/15 10:33:19;;;;;;;6.07;3.60;;;;;;;28.42;30.29;101616.19;3567107;40;20056;-63
2022/06/15 10:35:58;;;;;;;5.97;2.95;;;;;;;28.45;31.12;101620.47;3570492;40;20053;-64
2022/06/15 10:38:27;;;;;;;8.07;3.92;;;;;;;28.54;31.47;101612.91;3574847;40;20093;-63
2022/06/15 10:43:48;;;;;;;7.93;3.50;;;;;;;28.39;30.84;101594.41;3577403;40;20055;-64
2022/06/15 10:46:15;;;;;;;7.80;3.35;;;;;;;28.76;30.03;101614.66;3568087;40;20714;-63
2022/06/15 10:48:46;;;;;;;9.43;3.50;;;;;;;28.80;30.86;101613.25;3573401;40;20388;-63
2022/06/15 10:51:28;;;;;;;6.85;3.10;;;;;;;28.68;30.77;101607.34;3574545;40;20134;-64
2022/06/15 11:03:25;;;;;;;9.90;3.60;;;;;;;29.33;31.19;101601.84;3572566;40;20059;-64
2022/06/15 11:05:57;;;;;;;6.30;3.08;;;;;;;29.49;29.40;101598.78;3564756;40;20061;-64
2022/06/15 11:08:29;;;;;;;;;;;;;;;29.51;28.67;101579.19;3573085;40;20072;-64
2022/06/15 11:11:19;;;;;;;8.02;3.30;;;;;;;29.36;29.65;101580.13;3568835;40;19933;-64
2022/06/15 11:14:03;;;;;;;5.45;3.30;;;;;;;29.37;28.68;101573.56;3573927;40;20053;-64
2022/06/15 11:19:27;;;;;;;10.32;3.70;;;;;;;29.94;28.26;101588.28;3568645;40;20101;-63
2022/06/15 11:22:04;;;;;;;7.60;3.08;;;;;;;30.07;29.47;101587.50;3569090;40;20048;-64
2022/06/15 11:24:44;;;;;;;9.20;3.30;;;;;;;30.15;27.63;101578.13;3558881;40;20059;-64
2022/06/15 11:27:29;;;;;;;7.63;2.75;;;;;;;30.26;28.58;101597.00;3567411;40;20060;-64
2022/06/15 11:30:39;;;;;;;7.30;3.33;;;;;;;30.15;28.55;101598.38;3564589;40;20053;-64
2022/06/15 11:33:24;;;;;;;5.88;2.95;;;;;;;30.22;28.80;101590.13;3531727;40;20445;-64
2022/06/15 11:36:18;;;;;;;6.78;3.90;;;;;;;30.46;30.04;101592.38;3533401;40;20464;-64
2022/06/15 11:39:04;;;;;;;4.78;2.95;;;;;;;30.55;28.09;101595.84;3562365;40;20269;-64
2022/06/15 11:41:53;;;;;;;7.95;3.20;;;;;;;30.67;28.37;101605.28;3565530;40;20060;-64
2022/06/15 11:44:25;;;;;;;8.23;3.30;;;;;;;30.71;27.99;101601.00;3569297;40;20041;-64
2022/06/15 11:47:08;;;;;;;7.88;3.90;;;;;;;30.73;27.49;101595.22;3571406;40;20392;-64
2022/06/15 11:50:18;;;;;;;8.65;3.45;;;;;;;30.87;28.04;101585.06;3570073;40;20060;-64
2022/06/15 11:53:20;;;;;;;8.43;2.90;;;;;;;30.91;28.49;101595.53;3568791;40;20049;-64
2022/06/15 11:56:18;;;;;;;9.23;3.47;;;;;;;30.65;28.29;101596.28;3570120;40;20052;-65
2022/06/15 11:59:16;;;;;;;6.45;3.30;;;;;;;30.90;27.56;101587.41;3574079;40;20049;-64
2022/06/15 12:02:07;;;;;;;6.57;3.28;;;;;;;31.12;26.34;101579.75;3574743;40;20086;-64
2022/06/15 12:04:48;;;;;;;7.50;3.10;;;;;;;31.19;28.17;101578.69;3572986;40;20108;-64
2022/06/15 12:08:00;;;;;;;7.05;2.88;;;;;;;31.17;27.30;101577.19;3571640;40;20125;-64
2022/06/15 12:10:55;;;;;;;4.65;2.95;;;;;;;31.29;26.29;101574.63;3569531;40;20051;-64
2022/06/15 12:13:48;;;;;;;8.88;3.30;;;;;;;31.27;26.71;101571.19;3555019;40;20071;-63
2022/06/15 12:16:31;;;;;;;5.85;2.97;;;;;;;31.15;28.90;101562.66;3572169;40;20044;-64
2022/06/15 12:19:26;;;;;;;5.60;2.70;;;;;;;31.49;26.17;101580.19;3568367;40;20060;-63